Time;durP1;ratioP1;P1;durP2;ratioP2;P2;SDS_P1;SDS_P2;PMS_P1;PMS_P2;Temp;Humidity;BMP_temperature;BMP_pressure;BME280_temperature;BME280_humidity;BME280_pressure;Samples;Min_cycle;Max_cycle;Signal;HPM_P1;HPM_P2
2021/03/01 00:00:18;;;;;;;43.35;26.93;;;;;;;4.42;66.67;98545.81;1821670;77;26090;-81
2021/03/01 00:02:47;;;;;;;47.93;27.52;;;;;;;4.43;66.71;98554.67;1828734;77;25801;-84
2021/03/01 00:05:14;;;;;;;46.10;26.97;;;;;;;4.46;66.85;98543.70;1824696;77;27527;-80
2021/03/01 00:07:43;;;;;;;49.25;27.20;;;;;;;4.50;66.87;98541.91;1821396;77;25661;-81
2021/03/01 00:10:12;;;;;;;50.30;29.80;;;;;;;4.53;66.81;98545.63;1839151;77;25747;-83
2021/03/01 00:12:40;;;;;;;49.93;29.27;;;;;;;4.53;66.81;98559.00;1826289;77;25682;-81
2021/03/01 00:15:12;;;;;;;54.13;30.12;;;;;;;4.47;66.85;98559.56;1800957;77;25769;-82
2021/03/01 00:17:40;;;;;;;50.60;29.12;;;;;;;4.48;66.89;98550.56;1805440;77;27620;-80
2021/03/01 00:20:11;;;;;;;53.78;31.20;;;;;;;4.48;66.87;98537.19;1809495;77;26269;-79
2021/03/01 00:22:41;;;;;;;55.43;31.65;;;;;;;4.47;66.92;98528.81;1794265;77;25881;-83
2021/03/01 00:25:11;;;;;;;52.43;29.23;;;;;;;4.47;66.94;98533.35;1809588;77;25817;-81
2021/03/01 00:27:39;;;;;;;47.43;27.70;;;;;;;4.50;67.06;98527.20;1809087;77;25774;-82
2021/03/01 00:30:09;;;;;;;52.53;30.80;;;;;;;4.51;66.97;98530.22;1794618;77;27544;-84
2021/03/01 00:32:37;;;;;;;50.92;30.88;;;;;;;4.48;67.01;98543.88;1831191;77;25938;-83
2021/03/01 00:35:08;;;;;;;52.55;29.30;;;;;;;4.42;67.23;98559.17;1793754;77;25342;-81
2021/03/01 00:37:35;;;;;;;57.70;31.10;;;;;;;4.34;67.12;98565.75;1787439;78;25767;-81
2021/03/01 00:40:06;;;;;;;53.92;28.95;;;;;;;4.25;67.30;98573.27;1802876;77;25860;-84
2021/03/01 00:42:33;;;;;;;55.70;32.13;;;;;;;4.21;67.23;98566.55;1799631;77;28463;-80
2021/03/01 00:45:01;;;;;;;55.65;31.10;;;;;;;4.11;67.64;98567.02;1793629;77;26322;-83
2021/03/01 00:47:28;;;;;;;57.33;31.07;;;;;;;4.15;67.90;98565.77;1825441;77;25817;-84
2021/03/01 00:49:56;;;;;;;55.88;30.50;;;;;;;4.23;67.86;98559.20;1816200;77;25805;-82
2021/03/01 00:52:24;;;;;;;50.48;31.87;;;;;;;4.23;67.60;98568.06;1801945;77;25800;-81
2021/03/01 00:54:51;;;;;;;57.83;32.05;;;;;;;4.16;67.68;98566.12;1788161;77;28590;-82
2021/03/01 00:57:19;;;;;;;56.30;32.53;;;;;;;4.09;67.89;98571.20;1827902;77;25809;-82
2021/03/01 00:59:46;;;;;;;58.52;32.80;;;;;;;4.08;68.21;98570.00;1795137;77;26312;-82
2021/03/01 01:02:14;;;;;;;54.88;33.35;;;;;;;4.08;68.21;98574.02;1831914;77;26482;-82
2021/03/01 01:04:42;;;;;;;54.93;31.52;;;;;;;4.14;68.28;98580.11;1807019;77;26085;-82
2021/03/01 01:07:09;;;;;;;60.00;33.25;;;;;;;4.11;68.09;98576.37;1825198;77;27516;-81
2021/03/01 01:09:36;;;;;;;54.58;31.50;;;;;;;4.07;68.18;98576.33;1810352;77;25763;-83
2021/03/01 01:12:05;;;;;;;59.40;33.42;;;;;;;4.01;68.50;98581.73;1809505;77;25761;-81
2021/03/01 01:14:32;;;;;;;59.55;31.27;;;;;;;4.01;68.32;98579.06;1809357;77;25723;-84
2021/03/01 01:17:00;;;;;;;54.80;33.40;;;;;;;3.95;68.34;98581.83;1809369;77;26240;-83
2021/03/01 01:19:27;;;;;;;57.15;33.25;;;;;;;3.89;68.60;98587.72;1823918;77;27530;-81
2021/03/01 01:21:55;;;;;;;58.55;34.18;;;;;;;3.90;68.81;98577.38;1826136;77;25830;-80
2021/03/01 01:24:22;;;;;;;51.58;28.07;;;;;;;3.94;68.97;98577.46;1814027;77;26486;-83
2021/03/01 01:26:50;;;;;;;56.73;32.42;;;;;;;4.01;68.96;98575.55;1809421;77;26547;-82
2021/03/01 01:29:17;;;;;;;56.90;31.35;;;;;;;3.99;68.92;98578.36;1816995;77;25775;-82
2021/03/01 01:31:45;;;;;;;50.23;30.20;;;;;;;4.07;69.05;98572.32;1838383;77;27454;-82
2021/03/01 01:34:12;;;;;;;52.73;30.15;;;;;;;4.13;68.91;98573.92;1816025;77;25939;-82
2021/03/01 01:36:40;;;;;;;53.05;29.95;;;;;;;4.21;68.95;98574.56;1820012;77;26292;-82
2021/03/01 01:39:07;;;;;;;50.78;30.57;;;;;;;4.24;68.86;98577.77;1821939;77;25822;-83
2021/03/01 01:41:34;;;;;;;57.05;32.50;;;;;;;4.27;68.92;98566.80;1809578;77;25830;-82
2021/03/01 01:44:02;;;;;;;50.25;29.87;;;;;;;4.32;68.95;98573.06;1809619;77;28449;-81
2021/03/01 01:46:29;;;;;;;48.92;30.77;;;;;;;4.38;68.85;98569.80;1809602;77;25758;-82
2021/03/01 01:48:57;;;;;;;47.62;27.60;;;;;;;4.41;68.73;98572.19;1809933;77;26298;-81
2021/03/01 01:51:24;;;;;;;50.73;28.35;;;;;;;4.41;68.70;98570.86;1833274;77;25742;-84
2021/03/01 01:53:51;;;;;;;51.98;29.72;;;;;;;4.25;68.43;98582.63;1809665;77;25742;-82
2021/03/01 01:56:19;;;;;;;50.23;28.35;;;;;;;4.09;68.57;98585.05;1825354;77;28442;-83
2021/03/01 01:58:46;;;;;;;49.75;29.57;;;;;;;4.03;68.81;98590.95;1817001;77;26385;-81
2021/03/01 02:01:14;;;;;;;46.75;26.70;;;;;;;3.94;68.97;98592.16;1839346;77;25738;-82
2021/03/01 02:04:05;;;;;;;52.83;30.12;;;;;;;3.95;69.15;98593.00;1833490;77;26365;-83
2021/03/01 02:07:05;;;;;;;53.70;32.78;;;;;;;3.94;69.39;98604.67;1809608;77;25708;-83
2021/03/01 02:10:17;;;;;;;52.55;29.27;;;;;;;3.91;69.47;98600.94;1809613;77;27476;-84
2021/03/01 02:12:55;;;;;;;53.02;30.88;;;;;;;3.92;69.52;98610.14;1791508;77;26124;-84
2021/03/01 02:15:34;;;;;;;53.02;32.78;;;;;;;3.86;69.56;98605.38;1814588;77;26176;-82
2021/03/01 02:18:01;;;;;;;55.60;32.67;;;;;;;3.87;69.85;98608.38;1807553;77;25955;-82
2021/03/01 02:20:29;;;;;;;61.45;34.08;;;;;;;3.92;69.57;98600.80;1810340;77;25778;-81
2021/03/01 02:22:56;;;;;;;62.38;34.73;;;;;;;3.82;69.80;98610.64;1830945;77;27592;-81
2021/03/01 02:25:28;;;;;;;60.58;34.58;;;;;;;3.90;70.12;98611.27;1796134;77;25822;-82
2021/03/01 02:28:02;;;;;;;67.05;36.77;;;;;;;3.95;70.07;98613.88;1809595;77;25799;-81
2021/03/01 02:30:37;;;;;;;58.23;33.38;;;;;;;4.01;70.09;98615.13;1811955;77;25839;-83
2021/03/01 02:33:10;;;;;;;53.42;31.15;;;;;;;4.06;70.04;98616.05;1793883;77;25687;-84
2021/03/01 02:35:45;;;;;;;55.45;31.40;;;;;;;4.05;69.91;98619.22;1809297;77;27702;-82
2021/03/01 02:38:13;;;;;;;49.23;30.08;;;;;;;4.04;69.82;98624.70;1810408;77;25855;-82
2021/03/01 02:40:42;;;;;;;55.05;30.97;;;;;;;3.96;69.69;98624.92;1810097;77;26008;-81
2021/03/01 02:43:12;;;;;;;57.90;33.05;;;;;;;3.94;69.65;98616.69;1809566;77;26359;-82
2021/03/01 02:45:44;;;;;;;55.88;30.88;;;;;;;3.94;69.77;98624.21;1809488;77;25364;-82
2021/03/01 02:48:14;;;;;;;53.08;31.00;;;;;;;3.94;69.77;98618.88;1812676;77;27784;-81
2021/03/01 02:50:44;;;;;;;56.30;30.90;;;;;;;3.92;69.72;98627.52;1809539;77;26115;-80
2021/03/01 02:53:16;;;;;;;52.62;29.80;;;;;;;3.91;69.70;98631.16;1826283;77;25776;-82
2021/03/01 02:55:46;;;;;;;49.42;30.20;;;;;;;3.88;69.70;98626.09;1813589;77;25758;-79
2021/03/01 02:58:17;;;;;;;54.05;30.92;;;;;;;3.85;69.71;98635.75;1797057;77;25813;-80
2021/03/01 03:00:46;;;;;;;50.40;28.55;;;;;;;3.86;69.64;98636.10;1785193;77;27491;-79
2021/03/01 03:03:14;;;;;;;46.23;27.73;;;;;;;3.80;69.53;98629.96;1800775;77;26145;-80
2021/03/01 03:05:45;;;;;;;49.60;29.30;;;;;;;3.79;69.54;98638.95;1806657;77;25789;-82
2021/03/01 03:08:14;;;;;;;45.17;27.00;;;;;;;3.81;69.56;98637.00;1810513;77;26496;-82
2021/03/01 03:10:42;;;;;;;39.33;24.80;;;;;;;3.79;69.49;98629.61;1810249;77;25781;-81
2021/03/01 03:13:10;;;;;;;44.03;26.00;;;;;;;3.77;69.35;98622.71;1822384;77;27475;-80
2021/03/01 03:15:40;;;;;;;42.95;26.90;;;;;;;3.73;69.44;98626.17;1814706;77;26250;-80
2021/03/01 03:18:14;;;;;;;45.03;23.75;;;;;;;3.77;69.50;98627.56;1809572;77;25321;-79
2021/03/01 03:20:41;;;;;;;45.03;25.88;;;;;;;3.85;69.45;98625.06;1810792;77;26416;-80
2021/03/01 03:23:09;;;;;;;44.95;25.02;;;;;;;3.84;69.36;98634.05;1833097;77;25764;-81
2021/03/01 03:25:37;;;;;;;40.90;24.10;;;;;;;3.80;69.24;98636.64;1838265;77;27432;-81
2021/03/01 03:28:06;;;;;;;73.35;30.97;;;;;;;3.76;69.29;98644.56;1826267;77;25774;-81
2021/03/01 03:30:34;;;;;;;41.63;23.10;;;;;;;3.71;69.39;98641.48;1823163;77;25879;-83
2021/03/01 03:33:04;;;;;;;37.33;21.55;;;;;;;3.69;69.12;98646.12;1829804;77;25753;-81
2021/03/01 03:35:32;;;;;;;35.23;20.57;;;;;;;3.62;69.19;98640.98;1810901;77;25994;-81
2021/03/01 03:38:08;;;;;;;29.95;18.60;;;;;;;3.68;69.21;98639.08;1809890;77;27483;-82
2021/03/01 03:40:37;;;;;;;31.00;18.05;;;;;;;3.69;69.02;98638.11;1839140;77;26204;-81
2021/03/01 03:43:06;;;;;;;38.38;22.67;;;;;;;3.73;68.96;98644.87;1825112;77;25718;-81
2021/03/01 03:45:36;;;;;;;38.35;23.70;;;;;;;3.79;69.02;98648.80;1836856;77;25749;-80
2021/03/01 03:48:06;;;;;;;42.03;23.80;;;;;;;3.85;69.02;98648.26;1842700;77;25764;-81
2021/03/01 03:50:35;;;;;;;46.83;26.50;;;;;;;3.91;68.92;98648.53;1847082;77;27576;-81
2021/03/01 03:53:13;;;;;;;38.75;23.57;;;;;;;3.95;68.87;98649.95;1842683;77;25712;-82
2021/03/01 03:55:42;;;;;;;43.68;24.77;;;;;;;3.88;68.63;98658.14;1830726;77;25777;-81
2021/03/01 03:58:13;;;;;;;41.40;25.75;;;;;;;3.79;68.74;98652.31;1808558;77;26531;-83
2021/03/01 04:00:41;;;;;;;40.40;25.23;;;;;;;3.74;68.79;98654.57;1833192;77;25722;-81
2021/03/01 04:03:13;;;;;;;45.08;25.02;;;;;;;3.61;68.71;98652.64;1844869;77;27522;-81
2021/03/01 04:05:43;;;;;;;46.37;25.25;;;;;;;3.56;68.87;98652.20;1848918;77;25871;-81
2021/03/01 04:08:14;;;;;;;44.80;25.05;;;;;;;3.59;68.95;98654.60;1819939;77;25686;-83
2021/03/01 04:10:50;;;;;;;37.45;24.07;;;;;;;3.63;68.99;98653.33;1833009;77;26418;-81
2021/03/01 04:13:20;;;;;;;40.10;24.40;;;;;;;3.71;68.98;98657.51;1819451;77;25761;-80
2021/03/01 04:15:49;;;;;;;43.85;26.27;;;;;;;3.78;68.88;98656.45;1837460;77;26513;-81
2021/03/01 04:18:31;;;;;;;40.60;24.65;;;;;;;3.73;68.84;98652.87;1839974;77;26135;-79
2021/03/01 04:21:03;;;;;;;41.77;24.85;;;;;;;3.79;68.85;98661.66;1843747;77;25689;-81
2021/03/01 04:23:32;;;;;;;46.02;26.27;;;;;;;3.76;68.85;98659.25;1826155;77;25825;-79
2021/03/01 04:26:02;;;;;;;39.60;24.67;;;;;;;3.73;68.94;98663.56;1851686;77;25777;-80
2021/03/01 04:28:32;;;;;;;41.60;23.92;;;;;;;3.73;68.89;98660.89;1852521;77;27540;-80
2021/03/01 04:31:04;;;;;;;39.67;24.50;;;;;;;3.71;68.93;98662.84;1849713;76;26111;-80
2021/03/01 04:33:34;;;;;;;42.27;24.77;;;;;;;3.68;68.98;98659.60;1849143;77;25306;-80
2021/03/01 04:36:04;;;;;;;44.90;27.20;;;;;;;3.63;69.06;98658.67;1851610;77;25685;-80
2021/03/01 04:38:33;;;;;;;48.23;28.02;;;;;;;3.66;69.09;98661.56;1851634;77;26138;-80
2021/03/01 04:41:01;;;;;;;44.05;25.80;;;;;;;3.66;69.07;98659.73;1852539;77;27554;-82
2021/03/01 04:43:29;;;;;;;42.60;24.80;;;;;;;3.65;69.06;98663.38;1807429;77;25679;-79
2021/03/01 04:45:57;;;;;;;45.10;27.20;;;;;;;3.65;69.11;98662.53;1852939;77;25668;-80
2021/03/01 04:48:26;;;;;;;51.83;26.15;;;;;;;3.62;69.08;98671.17;1852463;77;25819;-82
2021/03/01 04:50:54;;;;;;;39.33;24.60;;;;;;;3.61;69.09;98670.00;1830938;77;25582;-82
2021/03/01 04:53:22;;;;;;;39.98;24.67;;;;;;;3.62;69.13;98672.51;1852812;77;27587;-81
2021/03/01 04:55:50;;;;;;;40.63;24.35;;;;;;;3.65;69.13;98673.22;1850084;77;25870;-82
2021/03/01 04:58:19;;;;;;;46.00;25.55;;;;;;;3.64;69.15;98673.70;1839061;77;25861;-82
2021/03/01 05:00:47;;;;;;;44.83;26.68;;;;;;;3.66;69.26;98674.42;1844238;77;26339;-81
2021/03/01 05:03:15;;;;;;;44.77;25.88;;;;;;;3.69;69.34;98675.48;1837942;77;25735;-80
2021/03/01 05:05:42;;;;;;;49.80;26.33;;;;;;;3.76;69.52;98678.44;1854418;77;28545;-80
2021/03/01 05:08:14;;;;;;;48.05;26.40;;;;;;;3.82;69.59;98674.74;1851526;77;25748;-82
2021/03/01 05:10:42;;;;;;;57.10;31.03;;;;;;;3.84;69.49;98679.46;1841914;77;25790;-83
2021/03/01 05:13:10;;;;;;;56.02;32.45;;;;;;;3.80;69.43;98682.05;1818818;77;26332;-83
2021/03/01 05:15:37;;;;;;;53.28;28.17;;;;;;;3.79;69.49;98677.69;1817432;77;26025;-80
2021/03/01 05:18:05;;;;;;;52.50;30.08;;;;;;;3.70;69.49;98686.53;1853779;77;27541;-82
2021/03/01 05:20:32;;;;;;;53.33;30.43;;;;;;;3.65;69.62;98689.23;1851482;77;25756;-81
2021/03/01 05:22:59;;;;;;;53.15;29.07;;;;;;;3.51;69.56;98691.80;1842909;77;25712;-81
2021/03/01 05:25:27;;;;;;;47.43;26.00;;;;;;;3.28;69.68;98697.83;1851533;77;26461;-82
2021/03/01 05:27:54;;;;;;;48.52;28.38;;;;;;;3.29;70.03;98698.67;1820594;77;25743;-81
2021/03/01 05:30:23;;;;;;;44.95;27.07;;;;;;;3.33;70.17;98698.77;1833760;77;27491;-82
2021/03/01 05:32:50;;;;;;;50.45;28.23;;;;;;;3.36;70.15;98699.84;1853454;77;25748;-82
2021/03/01 05:35:18;;;;;;;72.97;40.23;;;;;;;3.35;70.25;98703.48;1843866;77;26274;-82
2021/03/01 05:37:45;;;;;;;71.77;37.80;;;;;;;3.36;70.33;98695.84;1816454;77;25663;-81
2021/03/01 05:40:13;;;;;;;124.82;63.02;;;;;;;3.39;70.40;98707.56;1821835;77;25798;-82
2021/03/01 05:42:42;;;;;;;171.22;85.72;;;;;;;3.42;70.46;98705.47;1851493;77;27555;-82
2021/03/01 05:45:12;;;;;;;202.30;104.32;;;;;;;3.46;70.55;98706.06;1851396;77;25672;-82
2021/03/01 05:47:40;;;;;;;179.60;97.20;;;;;;;3.47;70.50;98712.60;1841369;77;25785;-82
2021/03/01 05:50:10;;;;;;;185.28;102.80;;;;;;;3.44;70.50;98718.20;1838962;77;25768;-82
2021/03/01 05:52:42;;;;;;;157.05;89.70;;;;;;;3.42;70.51;98717.48;1851546;77;25737;-82
2021/03/01 05:55:10;;;;;;;112.05;64.17;;;;;;;3.40;70.58;98719.92;1817905;77;27489;-81
2021/03/01 05:57:39;;;;;;;65.47;36.58;;;;;;;3.37;70.65;98730.41;1851449;77;26449;-81
2021/03/01 06:00:09;;;;;;;179.65;80.47;;;;;;;3.34;70.70;98733.83;1815777;77;25807;-81
2021/03/01 06:02:38;;;;;;;226.55;96.70;;;;;;;3.35;70.79;98734.19;1849999;77;25900;-81
2021/03/01 06:05:06;;;;;;;208.15;95.75;;;;;;;3.33;70.84;98736.14;1830860;77;25840;-82
2021/03/01 06:07:34;;;;;;;75.72;36.25;;;;;;;3.35;70.87;98735.52;1848168;77;27488;-82
2021/03/01 06:10:01;;;;;;;110.25;56.05;;;;;;;3.35;70.86;98739.52;1851434;77;26174;-82
2021/03/01 06:12:29;;;;;;;141.62;72.40;;;;;;;3.29;70.81;98744.05;1851491;77;25350;-82
2021/03/01 06:14:56;;;;;;;165.88;90.30;;;;;;;3.24;71.00;98739.97;1851511;77;25690;-81
2021/03/01 06:17:24;;;;;;;108.17;59.03;;;;;;;3.28;71.07;98747.69;1839018;77;25878;-81
2021/03/01 06:19:56;;;;;;;119.60;62.00;;;;;;;3.32;71.11;98749.13;1846585;77;27588;-81
2021/03/01 06:22:27;;;;;;;133.15;75.25;;;;;;;3.35;71.20;98756.88;1846555;76;25717;-82
2021/03/01 06:25:15;;;;;;;123.50;68.37;;;;;;;3.42;71.28;98760.68;1846773;77;25746;-81
2021/03/01 06:27:58;;;;;;;117.33;63.73;;;;;;;3.43;71.29;98766.37;1836654;77;26388;-82
2021/03/01 06:30:29;;;;;;;101.78;56.58;;;;;;;3.41;71.23;98767.00;1827155;77;25762;-81
2021/03/01 06:33:16;;;;;;;68.15;41.33;;;;;;;3.37;71.27;98774.94;1831871;77;27498;-82
2021/03/01 06:35:54;;;;;;;70.37;39.95;;;;;;;3.29;71.31;98776.91;1810287;77;25695;-82
2021/03/01 06:38:29;;;;;;;59.73;35.68;;;;;;;3.24;71.50;98781.33;1830580;77;25704;-83
2021/03/01 06:41:19;;;;;;;68.47;40.00;;;;;;;3.26;71.60;98784.69;1844201;77;26380;-82
2021/03/01 06:43:57;;;;;;;71.55;36.15;;;;;;;3.31;71.65;98780.30;1836560;77;25663;-82
2021/03/01 06:46:29;;;;;;;68.15;34.85;;;;;;;3.25;71.65;98781.69;1841494;76;28424;-82
2021/03/01 06:49:14;;;;;;;81.92;42.48;;;;;;;3.24;71.75;98780.00;1818734;77;25602;-82
2021/03/01 06:51:42;;;;;;;191.15;94.67;;;;;;;3.23;71.82;98784.98;1819481;77;25668;-81
2021/03/01 06:54:09;;;;;;;168.02;83.45;;;;;;;3.33;71.93;98793.52;1826908;76;25508;-81
2021/03/01 06:56:40;;;;;;;123.42;65.92;;;;;;;3.43;71.96;98784.58;1838896;77;25909;-82
2021/03/01 06:59:16;;;;;;;102.02;55.83;;;;;;;3.50;71.94;98787.58;1837874;77;27561;-82
2021/03/01 07:01:50;;;;;;;81.57;47.48;;;;;;;3.56;71.88;98791.03;1845563;77;26319;-82
2021/03/01 07:04:31;;;;;;;80.80;43.75;;;;;;;3.57;71.90;98790.05;1843739;76;26353;-82
2021/03/01 07:07:01;;;;;;;67.92;37.23;;;;;;;3.60;71.95;98795.14;1836887;77;26703;-82
2021/03/01 07:09:32;;;;;;;70.05;36.48;;;;;;;3.62;71.85;98802.53;1835298;76;25853;-81
2021/03/01 07:12:00;;;;;;;67.15;35.17;;;;;;;3.59;71.88;98805.46;1846591;77;27490;-82
2021/03/01 07:14:30;;;;;;;71.12;34.38;;;;;;;3.57;71.91;98798.06;1843100;76;26006;-83
2021/03/01 07:17:00;;;;;;;70.75;35.63;;;;;;;3.55;71.87;98797.34;1843874;77;25816;-82
2021/03/01 07:19:32;;;;;;;73.45;35.52;;;;;;;3.54;71.93;98799.66;1825566;77;26396;-83
2021/03/01 07:22:04;;;;;;;73.92;35.35;;;;;;;3.54;72.05;98803.17;1851660;77;25803;-82
2021/03/01 07:24:33;;;;;;;82.65;35.85;;;;;;;3.58;72.09;98810.44;1844057;77;27580;-81
2021/03/01 07:27:04;;;;;;;61.10;30.15;;;;;;;3.61;72.07;98808.84;1818210;77;25714;-82
2021/03/01 07:29:36;;;;;;;94.10;44.58;;;;;;;3.60;71.95;98816.02;1851619;77;25767;-82
2021/03/01 07:32:10;;;;;;;162.45;71.17;;;;;;;3.56;71.90;98816.40;1851567;77;25647;-81
2021/03/01 07:34:38;;;;;;;72.53;36.33;;;;;;;3.55;72.04;98814.70;1850801;77;25343;-82
2021/03/01 07:37:05;;;;;;;65.47;33.23;;;;;;;3.60;72.17;98812.49;1851494;77;27489;-82
2021/03/01 07:39:36;;;;;;;74.20;39.13;;;;;;;3.67;72.30;98824.32;1851481;77;25711;-81
2021/03/01 07:42:05;;;;;;;62.58;33.28;;;;;;;3.72;72.30;98813.25;1854544;77;26346;-81
2021/03/01 07:44:34;;;;;;;61.68;31.30;;;;;;;3.75;72.31;98820.48;1853062;77;26553;-81
2021/03/01 07:47:05;;;;;;;72.53;37.40;;;;;;;3.77;72.25;98825.69;1853888;77;25850;-81
2021/03/01 07:49:48;;;;;;;113.30;54.18;;;;;;;3.76;72.25;98825.33;1851756;77;27352;-82
2021/03/01 07:52:27;;;;;;;63.17;32.38;;;;;;;3.77;72.33;98826.54;1851508;77;26167;-80
2021/03/01 07:55:11;;;;;;;80.53;40.15;;;;;;;3.73;72.31;98831.81;1818195;77;25690;-81
2021/03/01 07:57:40;;;;;;;69.10;36.88;;;;;;;3.75;72.40;98832.50;1831859;77;25650;-83
2021/03/01 08:00:30;;;;;;;73.15;38.73;;;;;;;3.77;72.31;98830.55;1820779;77;25706;-82
2021/03/01 08:03:21;;;;;;;91.95;47.23;;;;;;;3.82;72.28;98831.00;1851591;77;28565;-80
2021/03/01 08:05:54;;;;;;;233.00;128.00;;;;;;;3.89;72.24;98836.15;1833903;77;25819;-80
2021/03/01 08:08:45;;;;;;;347.25;201.35;;;;;;;3.99;72.21;98835.69;1851596;77;25686;-82
2021/03/01 08:11:13;;;;;;;134.72;76.47;;;;;;;4.07;72.21;98828.84;1802613;77;25728;-82
2021/03/01 08:13:41;;;;;;;65.08;34.78;;;;;;;4.15;72.21;98833.00;1839044;77;26325;-82
2021/03/01 08:16:22;;;;;;;70.50;37.80;;;;;;;4.18;72.27;98830.06;1816501;77;27495;-83
2021/03/01 08:18:56;;;;;;;62.53;33.27;;;;;;;4.16;71.93;98840.05;1813641;78;25806;-82
2021/03/01 08:21:25;;;;;;;77.95;41.18;;;;;;;4.16;71.93;98840.05;1798169;78;25736;-83
2021/03/01 08:23:53;;;;;;;84.75;44.67;;;;;;;3.98;71.87;98845.20;1808087;78;26436;-82
2021/03/01 08:26:33;;;;;;;86.15;46.60;;;;;;;3.92;72.19;98846.57;1819604;77;25753;-82
2021/03/01 08:29:17;;;;;;;61.83;31.17;;;;;;;3.90;72.38;98847.19;1808092;78;27475;-83
2021/03/01 08:31:45;;;;;;;46.18;24.50;;;;;;;3.93;72.50;98846.93;1806899;78;26382;-83
2021/03/01 08:34:32;;;;;;;44.35;25.15;;;;;;;3.98;72.37;98848.69;1821030;78;26246;-83
2021/03/01 08:37:01;;;;;;;48.17;26.73;;;;;;;3.94;72.38;98850.45;1816598;78;26260;-81
2021/03/01 08:40:00;;;;;;;42.08;22.48;;;;;;;4.01;72.50;98843.57;1811630;78;25738;-82
2021/03/01 08:42:55;;;;;;;38.15;21.48;;;;;;;4.07;72.41;98855.56;1792996;78;27553;-82
2021/03/01 08:45:27;;;;;;;37.17;20.45;;;;;;;4.17;72.70;98855.09;1798798;78;26323;-81
2021/03/01 08:47:58;;;;;;;36.60;19.27;;;;;;;4.12;72.54;98857.32;1811179;78;25644;-82
2021/03/01 08:50:36;;;;;;;37.78;18.32;;;;;;;4.18;72.73;98858.13;1817871;78;25830;-82
2021/03/01 08:53:04;;;;;;;27.95;15.38;;;;;;;4.27;72.75;98856.81;1800558;78;25777;-82
2021/03/01 08:55:38;;;;;;;36.00;19.77;;;;;;;4.30;72.60;98853.03;1803372;78;27549;-81
2021/03/01 08:58:13;;;;;;;39.60;21.93;;;;;;;4.15;72.48;98857.06;1810475;78;25715;-82
2021/03/01 09:00:53;;;;;;;32.53;17.85;;;;;;;4.18;72.76;98856.79;1814919;78;25793;-82
2021/03/01 09:03:38;;;;;;;38.17;20.60;;;;;;;4.31;72.71;98861.41;1812256;78;26654;-81
2021/03/01 09:06:15;;;;;;;43.17;22.17;;;;;;;4.23;72.38;98868.75;1798285;78;25742;-81
2021/03/01 09:08:52;;;;;;;42.65;22.20;;;;;;;3.95;72.36;98877.03;1807084;78;28615;-81
2021/03/01 09:11:30;;;;;;;39.92;21.35;;;;;;;3.85;73.03;98880.16;1813492;77;25683;-80
2021/03/01 09:14:01;;;;;;;46.20;24.55;;;;;;;3.94;73.10;98884.69;1801111;78;25867;-82
2021/03/01 09:16:31;;;;;;;47.98;24.65;;;;;;;4.06;73.17;98884.59;1814024;78;26441;-81
2021/03/01 09:19:07;;;;;;;38.63;20.90;;;;;;;4.16;73.20;98886.32;1807926;77;25783;-81
2021/03/01 09:21:39;;;;;;;41.60;23.12;;;;;;;4.21;72.98;98889.94;1841680;77;28722;-82
2021/03/01 09:24:11;;;;;;;47.30;23.85;;;;;;;4.19;72.98;98893.23;1842688;77;25722;-81
2021/03/01 09:26:42;;;;;;;35.88;18.12;;;;;;;4.24;72.89;98898.51;1842728;77;25753;-82
2021/03/01 09:29:19;;;;;;;43.25;22.45;;;;;;;4.23;72.90;98901.31;1847043;77;33036;-82
2021/03/01 09:31:51;;;;;;;45.33;22.75;;;;;;;4.31;72.97;98898.83;1834289;77;26262;-81
2021/03/01 09:34:21;;;;;;;42.15;23.95;;;;;;;4.43;72.97;98887.54;1845932;77;27686;-81
2021/03/01 09:36:51;;;;;;;46.28;24.52;;;;;;;4.53;72.84;98889.25;1843444;77;25767;-81
2021/03/01 09:39:26;;;;;;;49.90;25.65;;;;;;;4.59;72.72;98892.70;1842676;77;25777;-82
2021/03/01 09:41:55;;;;;;;47.62;24.65;;;;;;;4.64;72.60;98895.81;1837800;77;25747;-82
2021/03/01 09:44:29;;;;;;;47.53;25.68;;;;;;;4.65;72.63;98897.51;1823926;77;25701;-82
2021/03/01 09:46:59;;;;;;;52.20;27.15;;;;;;;4.69;72.66;98897.59;1838462;77;28658;-81
2021/03/01 09:49:30;;;;;;;52.73;28.70;;;;;;;4.75;72.52;98895.34;1823244;77;25829;-81
2021/03/01 09:51:58;;;;;;;54.67;26.80;;;;;;;4.74;72.40;98897.66;1842501;77;25704;-81
2021/03/01 09:54:26;;;;;;;37.83;21.55;;;;;;;4.77;72.33;98906.26;1842731;77;25689;-81
2021/03/01 09:56:56;;;;;;;38.75;22.10;;;;;;;4.77;72.11;98906.75;1813328;77;25225;-82
2021/03/01 09:59:36;;;;;;;47.83;24.82;;;;;;;4.74;72.00;98916.38;1846863;77;27489;-81
2021/03/01 10:02:14;;;;;;;45.88;23.57;;;;;;;4.73;72.20;98916.02;1842752;77;25714;-82
2021/03/01 10:04:42;;;;;;;48.90;24.65;;;;;;;4.81;72.19;98920.21;1845382;77;25726;-81
2021/03/01 10:07:28;;;;;;;46.68;23.47;;;;;;;4.84;72.02;98912.73;1844543;77;25720;-81
2021/03/01 10:09:57;;;;;;;41.98;23.18;;;;;;;4.90;72.06;98915.36;1846096;77;25714;-82
2021/03/01 10:12:26;;;;;;;41.28;22.40;;;;;;;4.97;72.01;98913.31;1839187;77;27116;-81
2021/03/01 10:14:59;;;;;;;38.23;20.85;;;;;;;5.01;71.94;98920.58;1807740;77;25383;-82
2021/03/01 10:17:30;;;;;;;37.33;20.95;;;;;;;5.10;71.76;98919.73;1839324;77;25776;-82
2021/03/01 10:20:11;;;;;;;35.40;19.25;;;;;;;5.04;71.55;98918.97;1828439;77;26295;-81
2021/03/01 10:23:04;;;;;;;31.48;17.32;;;;;;;5.06;71.54;98917.01;1802961;77;26089;-82
2021/03/01 10:25:33;;;;;;;;;;;;;;;5.03;71.35;98922.62;1831595;77;27421;-82
2021/03/01 10:28:02;;;;;;;36.45;19.02;;;;;;;5.05;71.39;98920.67;1818056;77;26209;-82
2021/03/01 10:30:29;;;;;;;36.90;19.60;;;;;;;5.03;71.47;98919.95;1846130;77;25717;-82
2021/03/01 10:33:06;;;;;;;38.53;20.43;;;;;;;5.04;71.38;98914.47;1836670;77;25734;-81
2021/03/01 10:35:34;;;;;;;37.67;20.45;;;;;;;4.92;71.32;98922.77;1838909;77;25732;-82
2021/03/01 10:38:07;;;;;;;33.50;19.20;;;;;;;4.78;71.47;98923.16;1819193;77;26675;-82
2021/03/01 10:40:37;;;;;;;36.68;19.30;;;;;;;4.79;71.51;98919.02;1820001;77;25813;-81
2021/03/01 10:43:14;;;;;;;33.98;19.45;;;;;;;4.87;71.61;98920.48;1822722;77;25706;-81
2021/03/01 10:45:49;;;;;;;37.78;22.25;;;;;;;4.93;71.39;98935.16;1824859;77;26027;-82
2021/03/01 10:48:14;;;;;;;33.88;19.42;;;;;;;4.91;71.57;98925.08;1829658;77;25747;-82
2021/03/01 10:50:42;;;;;;;37.63;20.23;;;;;;;5.00;71.50;98932.27;1809565;77;28145;-82
2021/03/01 10:53:10;;;;;;;31.10;18.17;;;;;;;4.91;71.33;98927.76;1809616;77;26121;-82
2021/03/01 10:55:37;;;;;;;32.40;19.37;;;;;;;4.89;71.27;98927.05;1795726;77;25789;-82
2021/03/01 10:58:05;;;;;;;34.53;19.48;;;;;;;4.90;71.45;98927.40;1800450;77;26484;-81
2021/03/01 11:00:33;;;;;;;34.23;19.87;;;;;;;5.00;71.44;98928.25;1838736;77;25836;-82
2021/03/01 11:03:01;;;;;;;32.75;18.57;;;;;;;5.08;71.37;98924.38;1842840;77;28400;-82
2021/03/01 11:05:29;;;;;;;33.70;17.95;;;;;;;5.12;71.25;98924.46;1792943;77;25296;-82
2021/03/01 11:07:56;;;;;;;30.95;18.37;;;;;;;4.97;71.07;98918.67;1815432;77;26333;-82
2021/03/01 11:10:24;;;;;;;32.03;19.00;;;;;;;4.83;71.17;98924.94;1826280;77;25739;-82
2021/03/01 11:12:51;;;;;;;38.25;21.50;;;;;;;4.80;71.45;98919.86;1838755;77;25736;-82
2021/03/01 11:15:19;;;;;;;40.85;22.50;;;;;;;4.71;71.46;98912.14;1815203;77;28404;-82
2021/03/01 11:17:47;;;;;;;38.42;22.50;;;;;;;4.77;71.92;98916.11;1805383;77;25684;-81
2021/03/01 11:20:15;;;;;;;37.15;20.62;;;;;;;4.90;71.96;98917.55;1783785;79;26431;-81
2021/03/01 11:22:42;;;;;;;31.65;18.87;;;;;;;5.05;71.70;98920.67;1768319;79;25754;-82
2021/03/01 11:25:11;;;;;;;31.82;18.70;;;;;;;5.12;71.53;98920.94;1790075;79;25684;-81
2021/03/01 11:27:39;;;;;;;32.08;18.98;;;;;;;5.00;71.39;98919.73;1786138;79;28550;-81
2021/03/01 11:30:08;;;;;;;54.08;19.20;;;;;;;5.16;71.48;98919.68;1763938;79;25747;-82
2021/03/01 11:32:36;;;;;;;38.65;18.30;;;;;;;5.26;71.37;98920.03;1762950;79;25635;-81
2021/03/01 11:35:04;;;;;;;30.02;17.90;;;;;;;5.41;71.24;98927.15;1766428;79;25692;-82
2021/03/01 11:37:32;;;;;;;31.30;17.98;;;;;;;5.48;71.03;98936.30;1780815;78;25616;-82
2021/03/01 11:39:59;;;;;;;31.48;17.92;;;;;;;5.43;70.93;98929.20;1764834;78;27492;-82
2021/03/01 11:42:27;;;;;;;30.88;18.05;;;;;;;5.41;71.10;98926.66;1809137;79;26214;-82